createdAt,value
2023-03-11T00:03:10.201Z,6.87
2023-03-11T00:07:14.418Z,7.40
2023-03-11T00:11:17.133Z,4.70
2023-03-11T00:15:20.732Z,5.60
2023-03-11T00:19:24.796Z,6.43
2023-03-11T00:23:28.906Z,5.20
2023-03-11T00:27:31.543Z,5.07
2023-03-11T00:31:34.271Z,4.70
2023-03-11T00:35:38.439Z,5.67
2023-03-11T00:39:41.146Z,7.60
2023-03-11T00:43:43.909Z,7.37
2023-03-11T00:47:47.207Z,4.87
2023-03-11T00:51:51.285Z,7.10
2023-03-11T00:55:54.024Z,7.37
2023-03-11T00:59:57.088Z,5.60
2023-03-11T01:04:00.751Z,6.13
2023-03-11T01:08:05.783Z,6.87
2023-03-11T01:12:08.553Z,5.83
2023-03-11T01:16:11.276Z,4.87
2023-03-11T01:20:14.784Z,4.17
2023-03-11T01:24:18.964Z,5.23
2023-03-11T01:28:21.654Z,3.77
2023-03-11T01:32:24.501Z,5.33
2023-03-11T01:36:27.787Z,4.17
2023-03-11T01:40:34.214Z,3.90
2023-03-11T01:44:40.992Z,6.27
2023-03-11T01:48:47.645Z,4.67
2023-03-11T01:52:50.628Z,5.70
2023-03-11T01:56:56.597Z,4.77
2023-03-11T02:01:00.938Z,6.70
2023-03-11T02:05:04.898Z,3.83
2023-03-11T02:09:08.546Z,5.83
2023-03-11T02:13:13.294Z,3.83
2023-03-11T02:17:16.990Z,4.70
2023-03-11T02:21:25.041Z,5.63
2023-03-11T02:25:35.419Z,5.43
2023-03-11T02:29:42.360Z,5.27
2023-03-11T02:33:48.092Z,3.27
2023-03-11T02:37:53.502Z,5.27
2023-03-11T02:41:57.775Z,4.47
2023-03-11T02:46:03.440Z,6.87
2023-03-11T02:50:10.439Z,6.90
2023-03-11T02:54:13.652Z,8.83
2023-03-11T02:58:17.590Z,4.20
2023-03-11T03:02:21.808Z,4.30
2023-03-11T03:06:25.215Z,6.17
2023-03-11T03:10:28.726Z,6.57
2023-03-11T03:14:33.261Z,5.33
2023-03-11T03:18:37.412Z,4.60
2023-03-11T03:22:40.808Z,4.07
2023-03-11T03:26:45.272Z,3.87
2023-03-11T03:30:48.511Z,5.00
2023-03-11T03:34:58.239Z,5.27
2023-03-11T03:39:10.068Z,7.93
2023-03-11T03:43:13.730Z,5.73
2023-03-11T03:47:21.126Z,4.90
2023-03-11T03:51:25.402Z,6.07
2023-03-11T03:55:36.931Z,3.23
2023-03-11T03:59:39.738Z,5.37
2023-03-11T04:03:42.667Z,5.00
2023-03-11T04:07:49.989Z,3.10
2023-03-11T04:11:53.510Z,3.40
2023-03-11T04:15:56.639Z,4.50
2023-03-11T04:19:59.555Z,3.30
2023-03-11T04:24:03.978Z,3.53
2023-03-11T04:28:10.653Z,6.87
2023-03-11T04:32:13.369Z,4.23
2023-03-11T04:36:17.580Z,3.30
2023-03-11T04:40:22.073Z,7.57
2023-03-11T04:44:25.016Z,2.97
2023-03-11T04:48:27.834Z,5.20
2023-03-11T04:52:30.942Z,3.13
2023-03-11T04:56:35.256Z,3.43
2023-03-11T05:00:39.311Z,3.07
2023-03-11T05:04:45.636Z,4.40
2023-03-11T05:08:50.332Z,5.40
2023-03-11T05:12:54.916Z,5.20
2023-03-11T05:17:00.770Z,3.90
2023-03-11T05:21:05.480Z,3.83
2023-03-11T05:25:10.685Z,3.20
2023-03-11T05:29:15.701Z,6.50
2023-03-11T05:33:18.466Z,6.40
2023-03-11T05:37:22.262Z,4.63
2023-03-11T05:41:26.733Z,6.47
2023-03-11T05:45:30.999Z,4.63
2023-03-11T05:49:36.153Z,6.53
2023-03-11T05:53:39.542Z,3.53
2023-03-11T05:57:42.315Z,3.13
2023-03-11T06:01:46.552Z,6.13
2023-03-11T06:05:51.026Z,5.30
2023-03-11T06:09:54.595Z,3.47
2023-03-11T06:13:59.066Z,3.57
2023-03-11T06:18:06.227Z,3.23
2023-03-11T06:22:11.021Z,4.30
2023-03-11T06:26:15.707Z,2.83
2023-03-11T06:30:20.870Z,4.47
2023-03-11T06:34:42.035Z,5.30
2023-03-11T06:38:46.469Z,4.27
2023-03-11T06:42:50.318Z,4.07
2023-03-11T06:46:55.117Z,2.87
2023-03-11T06:51:01.238Z,4.73
2023-03-11T06:55:06.958Z,4.90
2023-03-11T06:59:09.972Z,5.30
2023-03-11T07:03:12.797Z,3.37
2023-03-11T07:07:17.133Z,3.53
2023-03-11T07:11:22.235Z,4.97
2023-03-11T07:15:27.248Z,3.33
2023-03-11T07:19:30.208Z,5.37
2023-03-11T07:23:35.239Z,3.93
2023-03-11T07:27:39.132Z,3.50
2023-03-11T07:31:42.439Z,7.87
2023-03-11T07:35:45.872Z,5.23
2023-03-11T07:39:50.139Z,5.67
2023-03-11T07:43:55.455Z,6.13
2023-03-11T07:47:58.415Z,5.30
2023-03-11T07:52:01.126Z,6.73
2023-03-11T07:56:06.364Z,3.77
2023-03-11T08:00:12.596Z,4.43
2023-03-11T08:04:16.988Z,4.17
2023-03-11T08:08:19.922Z,5.27
2023-03-11T08:12:24.229Z,4.37
2023-03-11T08:16:28.162Z,5.30
2023-03-11T08:20:31.033Z,5.37
2023-03-11T08:24:35.676Z,4.93
2023-03-11T08:28:40.043Z,5.70
2023-03-11T08:32:43.152Z,8.33
2023-03-11T08:36:46.097Z,5.03
2023-03-11T08:40:48.794Z,8.07
2023-03-11T08:44:52.826Z,4.17
2023-03-11T08:48:57.575Z,5.03
2023-03-11T08:53:03.213Z,4.97
2023-03-11T08:57:05.986Z,4.23
2023-03-11T09:01:11.880Z,8.23
2023-03-11T09:05:14.944Z,6.20
2023-03-11T09:09:20.279Z,6.70
2023-03-11T09:13:23.314Z,6.67
2023-03-11T09:17:27.713Z,4.77
2023-03-11T09:21:30.725Z,6.37
2023-03-11T09:25:34.007Z,3.60
2023-03-11T09:29:40.130Z,3.07
2023-03-11T09:33:46.289Z,7.93
2023-03-11T09:37:49.456Z,7.37
2023-03-11T09:41:58.885Z,4.63
2023-03-11T09:46:08.323Z,4.07
2023-03-11T09:50:27.651Z,5.00
2023-03-11T09:54:39.349Z,5.67
2023-03-11T09:58:47.089Z,3.43
2023-03-11T10:02:50.814Z,4.10
2023-03-11T10:07:00.577Z,4.00
2023-03-11T10:11:13.632Z,3.20
2023-03-11T10:15:24.288Z,3.23
2023-03-11T10:19:40.385Z,3.43
2023-03-11T10:24:00.432Z,3.97
2023-03-11T10:28:08.780Z,6.13
2023-03-11T10:32:20.329Z,4.67
2023-03-11T10:36:31.848Z,3.00
2023-03-11T10:40:40.802Z,4.03
2023-03-11T10:44:48.438Z,4.70
2023-03-11T10:48:52.054Z,2.60
2023-03-11T10:53:10.009Z,3.17
2023-03-11T10:57:26.915Z,2.30
2023-03-11T11:01:33.099Z,3.37
2023-03-11T11:05:37.886Z,5.07
2023-03-11T11:09:41.112Z,3.17
2023-03-11T11:13:57.830Z,9.80
2023-03-11T11:18:04.569Z,4.63
2023-03-11T11:22:17.461Z,2.00
2023-03-11T11:26:22.989Z,3.60
2023-03-11T11:30:28.435Z,2.87
2023-03-11T11:34:34.279Z,2.37
2023-03-11T11:38:37.309Z,3.53
2023-03-11T11:42:45.150Z,2.47
2023-03-11T11:46:56.321Z,4.97
2023-03-11T11:51:02.393Z,2.27
2023-03-11T11:55:16.982Z,5.53
2023-03-11T11:59:23.013Z,4.53
2023-03-11T12:04:04.722Z,3.13
2023-03-11T12:08:18.322Z,2.70
2023-03-11T12:12:28.758Z,3.10
2023-03-11T12:16:41.423Z,4.30
2023-03-11T12:20:48.673Z,2.70
2023-03-11T12:25:06.979Z,3.10
2023-03-11T12:29:19.920Z,3.03
2023-03-11T12:33:31.489Z,4.50
2023-03-11T12:37:38.033Z,4.40
2023-03-11T12:41:42.758Z,1.93
2023-03-11T12:45:50.155Z,2.90
2023-03-11T12:49:55.218Z,4.13
2023-03-11T12:53:59.551Z,2.63
2023-03-11T12:58:28.204Z,2.37
2023-03-11T13:02:59.029Z,2.13
2023-03-11T13:07:26.710Z,1.97
2023-03-11T13:11:44.586Z,5.30
2023-03-11T13:15:47.372Z,1.83
2023-03-11T13:19:53.706Z,3.00
2023-03-11T13:24:41.564Z,4.97
2023-03-11T13:29:12.247Z,4.10
2023-03-11T13:33:26.494Z,3.90
2023-03-11T13:37:41.589Z,3.50
2023-03-11T13:41:45.830Z,2.80
2023-03-11T13:45:54.289Z,3.37
2023-03-11T13:50:03.843Z,2.63
2023-03-11T13:54:36.722Z,3.20
2023-03-11T13:58:39.515Z,5.47
2023-03-11T14:02:48.615Z,5.63
2023-03-11T14:06:53.101Z,3.60
2023-03-11T14:10:57.913Z,4.10
2023-03-11T14:15:05.156Z,2.73
2023-03-11T14:19:16.679Z,2.97
2023-03-11T14:23:24.318Z,3.27
2023-03-11T14:27:29.312Z,2.07
2023-03-11T14:31:33.915Z,1.63
2023-03-11T14:35:42.616Z,2.07
2023-03-11T14:39:47.661Z,1.90
2023-03-11T14:43:54.994Z,2.30
2023-03-11T14:48:03.430Z,1.80
2023-03-11T14:52:17.500Z,2.83
2023-03-11T14:56:23.778Z,2.70
2023-03-11T15:00:31.988Z,1.60
2023-03-11T15:04:44.210Z,4.00
2023-03-11T15:08:53.596Z,3.03
2023-03-11T15:13:10.149Z,2.23
2023-03-11T15:17:37.129Z,1.83
2023-03-11T15:21:47.419Z,2.10
2023-03-11T15:25:53.145Z,2.13
2023-03-11T15:29:57.038Z,3.67
2023-03-11T15:34:11.039Z,2.90
2023-03-11T15:38:21.543Z,2.30
2023-03-11T15:42:27.707Z,3.27
2023-03-11T15:46:31.691Z,3.00
2023-03-11T15:50:50.608Z,3.43
2023-03-11T15:54:57.276Z,2.07
2023-03-11T15:59:03.527Z,2.50
2023-03-11T16:03:06.926Z,3.20
2023-03-11T16:07:10.930Z,3.00
2023-03-11T16:11:14.018Z,2.03
2023-03-11T16:15:25.034Z,2.43
2023-03-11T16:19:27.771Z,3.67
2023-03-11T16:23:50.153Z,3.37
2023-03-11T16:27:56.438Z,6.03
2023-03-11T16:32:00.613Z,4.67
2023-03-11T16:36:16.629Z,1.70
2023-03-11T16:40:20.938Z,3.33
2023-03-11T16:44:24.795Z,1.60
2023-03-11T16:48:30.080Z,1.93
2023-03-11T16:52:34.268Z,1.80
2023-03-11T16:56:43.098Z,3.37
2023-03-11T17:00:47.883Z,2.20
2023-03-11T17:04:52.556Z,2.67
2023-03-11T17:08:55.402Z,2.30
2023-03-11T17:12:58.404Z,2.87
2023-03-11T17:17:01.449Z,6.13
2023-03-11T17:21:09.394Z,5.53
2023-03-11T17:25:12.599Z,3.73
2023-03-11T17:29:15.545Z,4.07
2023-03-11T17:33:18.578Z,4.80
2023-03-11T17:37:30.282Z,3.47
2023-03-11T17:41:33.547Z,5.63
2023-03-11T17:45:39.018Z,28.03
2023-03-11T17:49:41.956Z,30.47
2023-03-11T17:53:48.348Z,24.00
2023-03-11T17:57:53.298Z,17.93
2023-03-11T18:01:57.158Z,22.07
2023-03-11T18:06:01.471Z,15.07
2023-03-11T18:10:06.445Z,10.90
2023-03-11T18:14:10.050Z,7.27
2023-03-11T18:18:13.300Z,6.53
2023-03-11T18:22:16.950Z,6.20
2023-03-11T18:26:21.795Z,7.77
2023-03-11T18:30:25.495Z,5.57
2023-03-11T18:34:28.389Z,9.23
2023-03-11T18:38:31.353Z,26.43
2023-03-11T18:42:35.734Z,17.63
2023-03-11T18:46:41.448Z,21.40
2023-03-11T18:50:44.682Z,17.37
2023-03-11T18:54:48.590Z,11.10
2023-03-11T18:58:55.296Z,8.97
2023-03-11T19:02:58.550Z,7.10
2023-03-11T19:07:01.217Z,9.97
2023-03-11T19:11:07.327Z,10.50
2023-03-11T19:15:12.682Z,9.33
2023-03-11T19:19:15.517Z,9.50
2023-03-11T19:23:18.456Z,8.57
2023-03-11T19:27:21.532Z,7.50
2023-03-11T19:31:25.849Z,8.30
2023-03-11T19:35:29.620Z,10.00
2023-03-11T19:39:32.580Z,8.87
2023-03-11T19:43:36.624Z,9.40
2023-03-11T19:47:41.507Z,8.87
2023-03-11T19:51:50.227Z,7.80
2023-03-11T19:55:55.530Z,7.37
2023-03-11T19:59:58.366Z,8.20
2023-03-11T20:04:03.171Z,8.77
2023-03-11T20:08:07.486Z,8.10
2023-03-11T20:12:10.627Z,7.90
2023-03-11T20:16:18.075Z,6.10
2023-03-11T20:20:22.989Z,4.73
2023-03-11T20:24:26.282Z,5.80
2023-03-11T20:28:29.194Z,6.97
2023-03-11T20:32:32.214Z,7.03
2023-03-11T20:36:36.580Z,8.83
2023-03-11T20:40:40.258Z,9.40
2023-03-11T20:44:43.323Z,10.00
2023-03-11T20:48:46.785Z,11.43
2023-03-11T20:52:51.517Z,10.63
2023-03-11T20:56:54.406Z,13.83
2023-03-11T21:00:57.516Z,14.90
2023-03-11T21:05:01.129Z,12.83
2023-03-11T21:09:07.244Z,14.80
2023-03-11T21:13:10.526Z,13.70
2023-03-11T21:17:13.480Z,16.80
2023-03-11T21:21:17.931Z,16.93
2023-03-11T21:25:22.397Z,18.47
2023-03-11T21:29:25.499Z,24.67
2023-03-11T21:33:28.837Z,25.33
2023-03-11T21:37:32.303Z,22.17
2023-03-11T21:41:36.787Z,21.57
2023-03-11T21:45:40.276Z,24.37
2023-03-11T21:49:43.199Z,40.93
2023-03-11T21:53:46.235Z,34.10
2023-03-11T21:57:50.738Z,36.80
2023-03-11T22:01:53.925Z,37.43
2023-03-11T22:05:58.404Z,35.13
2023-03-11T22:10:01.416Z,31.50
2023-03-11T22:14:05.862Z,31.87
2023-03-11T22:18:08.878Z,34.27
2023-03-11T22:22:11.774Z,33.10
2023-03-11T22:26:15.879Z,33.30
2023-03-11T22:30:20.070Z,35.17
2023-03-11T22:34:22.963Z,29.47
2023-03-11T22:38:26.844Z,27.70
2023-03-11T22:42:30.684Z,28.57
2023-03-11T22:46:34.845Z,25.90
2023-03-11T22:50:41.403Z,30.47
2023-03-11T22:54:44.430Z,31.67
2023-03-11T22:58:47.880Z,41.43
2023-03-11T23:02:56.939Z,53.00
2023-03-11T23:06:59.759Z,46.13
2023-03-11T23:11:04.516Z,37.97
2023-03-11T23:15:10.928Z,35.30
2023-03-11T23:19:15.654Z,25.87
2023-03-11T23:23:18.488Z,24.50
2023-03-11T23:27:22.213Z,27.47
2023-03-11T23:31:26.757Z,22.63
2023-03-11T23:35:31.177Z,21.13
2023-03-11T23:39:34.956Z,15.13
2023-03-11T23:43:37.817Z,14.13
2023-03-11T23:47:41.107Z,16.23
2023-03-11T23:51:45.424Z,11.27
2023-03-11T23:55:48.898Z,12.47
2023-03-11T23:59:51.987Z,11.70
